createdAt,value
2022-12-24T00:00:02.554Z,999.14
2022-12-24T00:01:02.649Z,999.20
2022-12-24T00:02:02.944Z,999.23
2022-12-24T00:03:02.999Z,999.21
2022-12-24T00:04:03.058Z,999.13
2022-12-24T00:05:02.683Z,999.23
2022-12-24T00:06:02.850Z,999.27
2022-12-24T00:07:03.686Z,999.29
2022-12-24T00:08:03.175Z,999.30
2022-12-24T00:09:03.686Z,999.34
2022-12-24T00:10:03.199Z,999.33
2022-12-24T00:11:03.325Z,999.35
2022-12-24T00:12:03.744Z,999.36
2022-12-24T00:13:03.468Z,999.30
2022-12-24T00:14:03.494Z,999.35
2022-12-24T00:15:03.916Z,999.31
2022-12-24T00:16:03.264Z,999.37
2022-12-24T00:17:03.318Z,999.39
2022-12-24T00:18:03.062Z,999.37
2022-12-24T00:19:03.391Z,999.37
2022-12-24T00:20:02.937Z,999.34
2022-12-24T00:21:03.036Z,999.41
2022-12-24T00:22:03.937Z,999.44
2022-12-24T00:23:03.623Z,999.53
2022-12-24T00:24:03.842Z,999.55
2022-12-24T00:25:03.549Z,999.51
2022-12-24T00:26:03.474Z,999.50
2022-12-24T00:27:02.769Z,999.53
2022-12-24T00:28:02.691Z,999.57
2022-12-24T00:29:02.695Z,999.56
2022-12-24T00:30:02.479Z,999.51
2022-12-24T00:31:02.946Z,999.61
2022-12-24T00:32:03.207Z,999.54
2022-12-24T00:33:03.068Z,999.60
2022-12-24T00:34:02.793Z,999.60
2022-12-24T00:35:03.038Z,999.51
2022-12-24T00:36:02.931Z,999.57
2022-12-24T00:37:03.854Z,999.61
2022-12-24T00:38:03.834Z,999.63
2022-12-24T00:39:03.695Z,999.62
2022-12-24T00:40:03.806Z,999.64
2022-12-24T00:41:03.620Z,999.70
2022-12-24T00:42:03.057Z,999.65
2022-12-24T00:43:02.998Z,999.59
2022-12-24T00:44:02.742Z,999.62
2022-12-24T00:45:02.481Z,999.65
2022-12-24T00:46:02.724Z,999.56
2022-12-24T00:47:08.263Z,999.55
2022-12-24T00:48:02.696Z,999.53
2022-12-24T00:49:02.926Z,999.49
2022-12-24T00:50:02.779Z,999.48
2022-12-24T00:51:02.662Z,999.50
2022-12-24T00:52:03.900Z,999.55
2022-12-24T00:53:03.748Z,999.54
2022-12-24T00:54:03.524Z,999.59
2022-12-24T00:55:03.433Z,999.55
2022-12-24T00:56:03.637Z,999.57
2022-12-24T00:57:03.050Z,999.56
2022-12-24T00:58:03.082Z,999.59
2022-12-24T00:59:02.753Z,999.60
2022-12-24T01:00:02.780Z,999.63
2022-12-24T01:01:03.024Z,999.62
2022-12-24T01:02:02.378Z,999.63
2022-12-24T01:03:02.604Z,999.61
2022-12-24T01:04:02.337Z,999.61
2022-12-24T01:05:02.464Z,999.62
2022-12-24T01:06:01.892Z,999.64
2022-12-24T01:07:02.888Z,999.69
2022-12-24T01:08:02.737Z,999.69
2022-12-24T01:09:02.572Z,999.65
2022-12-24T01:10:02.639Z,999.69
2022-12-24T01:11:02.701Z,999.69
2022-12-24T01:12:02.981Z,999.69
2022-12-24T01:13:02.948Z,999.72
2022-12-24T01:14:02.625Z,999.74
2022-12-24T01:15:02.399Z,999.72
2022-12-24T01:16:02.814Z,999.75
2022-12-24T01:17:02.471Z,999.75
2022-12-24T01:18:02.848Z,999.76
2022-12-24T01:19:02.852Z,999.74
2022-12-24T01:20:02.695Z,999.75
2022-12-24T01:21:02.826Z,999.78
2022-12-24T01:22:02.521Z,999.80
2022-12-24T01:23:02.506Z,999.84
2022-12-24T01:24:01.963Z,999.85
2022-12-24T01:25:02.283Z,999.89
2022-12-24T01:26:02.053Z,999.97
2022-12-24T01:27:02.665Z,999.95
2022-12-24T01:28:02.343Z,999.93
2022-12-24T01:29:02.181Z,999.95
2022-12-24T01:30:02.122Z,999.90
2022-12-24T01:31:02.395Z,999.94
2022-12-24T01:32:02.492Z,999.92
2022-12-24T01:33:02.729Z,999.91
2022-12-24T01:34:02.883Z,999.92
2022-12-24T01:35:02.490Z,999.90
2022-12-24T01:36:02.937Z,999.93
2022-12-24T01:37:02.360Z,999.98
2022-12-24T01:38:02.431Z,999.96
2022-12-24T01:39:02.680Z,1000.06
2022-12-24T01:40:02.098Z,1000.04
2022-12-24T01:41:02.592Z,1000.07
2022-12-24T01:42:01.701Z,1000.04
2022-12-24T01:43:01.728Z,1000.03
2022-12-24T01:44:02.102Z,1000.03
2022-12-24T01:45:02.120Z,1000.00
2022-12-24T01:46:02.121Z,1000.02
2022-12-24T01:47:02.712Z,1000.06
2022-12-24T01:48:02.247Z,1000.08
2022-12-24T01:49:02.366Z,1000.07
2022-12-24T01:50:02.632Z,1000.07
2022-12-24T01:51:02.210Z,1000.09
2022-12-24T01:52:02.531Z,1000.09
2022-12-24T01:53:02.736Z,1000.11
2022-12-24T01:54:02.402Z,1000.12
2022-12-24T01:55:02.965Z,1000.17
2022-12-24T01:56:02.485Z,1000.16
2022-12-24T01:57:02.453Z,1000.22
2022-12-24T01:58:02.175Z,1000.22
2022-12-24T01:59:02.287Z,1000.15
2022-12-24T02:00:02.043Z,1000.21
2022-12-24T02:01:01.992Z,1000.19
2022-12-24T02:02:02.592Z,1000.17
2022-12-24T02:03:02.321Z,1000.21
2022-12-24T02:04:02.116Z,1000.17
2022-12-24T02:05:02.102Z,1000.22
2022-12-24T02:06:02.216Z,1000.23
2022-12-24T02:07:03.024Z,1000.23
2022-12-24T02:08:02.541Z,1000.25
2022-12-24T02:09:02.913Z,1000.21
2022-12-24T02:10:02.715Z,1000.24
2022-12-24T02:11:02.893Z,1000.26
2022-12-24T02:12:02.969Z,1000.27
2022-12-24T02:13:02.500Z,1000.31
2022-12-24T02:14:02.396Z,1000.32
2022-12-24T02:15:02.639Z,1000.35
2022-12-24T02:16:02.443Z,1000.39
2022-12-24T02:17:02.536Z,1000.46
2022-12-24T02:18:02.813Z,1000.44
2022-12-24T02:19:03.180Z,1000.45
2022-12-24T02:20:02.951Z,1000.47
2022-12-24T02:21:03.424Z,1000.49
2022-12-24T02:22:02.543Z,1000.48
2022-12-24T02:23:02.284Z,1000.50
2022-12-24T02:24:02.603Z,1000.50
2022-12-24T02:25:02.390Z,1000.51
2022-12-24T02:26:02.619Z,1000.53
2022-12-24T02:27:02.898Z,1000.58
2022-12-24T02:28:02.419Z,1000.62
2022-12-24T02:29:02.982Z,1000.57
2022-12-24T02:30:02.765Z,1000.65
2022-12-24T02:31:03.008Z,1000.70
2022-12-24T02:32:03.178Z,1000.66
2022-12-24T02:33:02.817Z,1000.65
2022-12-24T02:34:02.808Z,1000.62
2022-12-24T02:35:03.068Z,1000.64
2022-12-24T02:36:03.128Z,1000.65
2022-12-24T02:37:02.724Z,1000.67
2022-12-24T02:38:02.265Z,1000.69
2022-12-24T02:39:02.830Z,1000.65
2022-12-24T02:40:02.516Z,1000.76
2022-12-24T02:41:02.950Z,1000.67
2022-12-24T02:42:02.854Z,1000.73
2022-12-24T02:43:03.140Z,1000.71
2022-12-24T02:44:02.940Z,1000.75
2022-12-24T02:45:03.122Z,1000.78
2022-12-24T02:46:02.811Z,1000.78
2022-12-24T02:47:03.098Z,1000.80
2022-12-24T02:48:02.861Z,1000.90
2022-12-24T02:49:02.823Z,1000.84
2022-12-24T02:50:03.081Z,1000.83
2022-12-24T02:51:03.333Z,1000.86
2022-12-24T02:52:02.635Z,1000.88
2022-12-24T02:53:02.571Z,1000.93
2022-12-24T02:54:02.415Z,1000.94
2022-12-24T02:55:02.801Z,1000.94
2022-12-24T02:56:02.637Z,1000.91
2022-12-24T02:57:02.705Z,1000.89
2022-12-24T02:58:02.974Z,1000.90
2022-12-24T02:59:02.707Z,1000.91
2022-12-24T03:00:02.818Z,1000.94
2022-12-24T03:01:02.766Z,1000.95
2022-12-24T03:02:02.358Z,1000.98
2022-12-24T03:03:01.842Z,1001.00
2022-12-24T03:04:02.135Z,1000.97
2022-12-24T03:05:01.875Z,1000.98
2022-12-24T03:06:01.752Z,1000.99
2022-12-24T03:07:02.086Z,1000.98
2022-12-24T03:08:02.544Z,1001.00
2022-12-24T03:09:02.140Z,1000.98
2022-12-24T03:10:02.760Z,1000.99
2022-12-24T03:11:02.073Z,1001.02
2022-12-24T03:12:03.225Z,1000.99
2022-12-24T03:13:02.731Z,1001.01
2022-12-24T03:14:02.636Z,1000.96
2022-12-24T03:15:02.880Z,1000.98
2022-12-24T03:16:03.008Z,1001.00
2022-12-24T03:17:02.641Z,1000.96
2022-12-24T03:18:02.578Z,1000.99
2022-12-24T03:19:02.166Z,1000.93
2022-12-24T03:20:02.227Z,1000.99
2022-12-24T03:21:02.035Z,1000.95
2022-12-24T03:22:02.813Z,1001.01
2022-12-24T03:23:02.959Z,1000.97
2022-12-24T03:24:02.765Z,1001.00
2022-12-24T03:25:02.575Z,1000.97
2022-12-24T03:26:02.603Z,1001.00
2022-12-24T03:27:02.200Z,1001.02
2022-12-24T03:28:01.971Z,1001.03
2022-12-24T03:29:02.588Z,1001.05
2022-12-24T03:30:02.510Z,1001.04
2022-12-24T03:31:01.960Z,1001.11
2022-12-24T03:32:02.081Z,1001.14
2022-12-24T03:33:01.733Z,1001.20
2022-12-24T03:34:01.755Z,1001.26
2022-12-24T03:35:01.986Z,1001.24
2022-12-24T03:36:02.171Z,1001.25
2022-12-24T03:37:01.758Z,1001.29
2022-12-24T03:38:01.760Z,1001.30
2022-12-24T03:39:01.711Z,1001.35
2022-12-24T03:40:01.892Z,1001.30
2022-12-24T03:41:02.298Z,1001.31
2022-12-24T03:42:02.238Z,1001.39
2022-12-24T03:43:01.892Z,1001.35
2022-12-24T03:44:02.333Z,1001.43
2022-12-24T03:45:02.257Z,1001.40
2022-12-24T03:46:02.408Z,1001.40
2022-12-24T03:47:02.329Z,1001.35
2022-12-24T03:48:01.976Z,1001.35
2022-12-24T03:49:02.450Z,1001.33
2022-12-24T03:50:02.071Z,1001.35
2022-12-24T03:51:01.901Z,1001.30
2022-12-24T03:52:02.839Z,1001.31
2022-12-24T03:53:02.363Z,1001.30
2022-12-24T03:54:02.889Z,1001.36
2022-12-24T03:55:02.406Z,1001.35
2022-12-24T03:56:02.923Z,1001.39
2022-12-24T03:57:01.927Z,1001.39
2022-12-24T03:58:01.853Z,1001.38
2022-12-24T03:59:01.941Z,1001.37
2022-12-24T04:00:01.848Z,1001.37
2022-12-24T04:01:02.365Z,1001.38
2022-12-24T04:02:02.481Z,1001.36
2022-12-24T04:03:02.490Z,1001.41
2022-12-24T04:04:01.963Z,1001.38
2022-12-24T04:05:02.012Z,1001.49
2022-12-24T04:06:02.059Z,1001.47
2022-12-24T04:07:02.568Z,1001.50
2022-12-24T04:08:02.327Z,1001.52
2022-12-24T04:09:02.648Z,1001.51
2022-12-24T04:10:02.520Z,1001.48
2022-12-24T04:11:09.356Z,1001.49
2022-12-24T04:12:02.212Z,1001.55
2022-12-24T04:13:01.983Z,1001.54
2022-12-24T04:14:02.323Z,1001.49
2022-12-24T04:15:02.547Z,1001.45
2022-12-24T04:16:02.333Z,1001.55
2022-12-24T04:17:02.842Z,1001.56
2022-12-24T04:18:02.595Z,1001.55
2022-12-24T04:19:02.852Z,1001.57
2022-12-24T04:20:03.301Z,1001.51
2022-12-24T04:21:03.139Z,1001.57
2022-12-24T04:22:01.769Z,1001.56
2022-12-24T04:23:02.050Z,1001.55
2022-12-24T04:24:02.190Z,1001.61
2022-12-24T04:25:01.966Z,1001.56
2022-12-24T04:26:02.461Z,1001.69
2022-12-24T04:27:02.713Z,1001.67
2022-12-24T04:28:02.624Z,1001.71
2022-12-24T04:29:02.579Z,1001.72
2022-12-24T04:30:02.775Z,1001.67
2022-12-24T04:31:02.627Z,1001.63
2022-12-24T04:32:02.219Z,1001.74
2022-12-24T04:33:02.305Z,1001.79
2022-12-24T04:34:02.440Z,1001.80
2022-12-24T04:35:02.340Z,1001.88
2022-12-24T04:36:02.121Z,1001.85
2022-12-24T04:37:03.026Z,1001.87
2022-12-24T04:38:02.851Z,1001.85
2022-12-24T04:39:03.325Z,1001.86
2022-12-24T04:40:02.945Z,1001.85
2022-12-24T04:41:02.733Z,1001.86
2022-12-24T04:42:01.977Z,1001.86
2022-12-24T04:43:01.951Z,1001.89
2022-12-24T04:44:01.898Z,1001.82
2022-12-24T04:45:02.315Z,1001.84
2022-12-24T04:46:02.120Z,1001.84
2022-12-24T04:47:02.409Z,1001.80
2022-12-24T04:48:02.364Z,1001.83
2022-12-24T04:49:02.218Z,1001.86
2022-12-24T04:50:02.083Z,1001.87
2022-12-24T04:51:01.948Z,1001.88
2022-12-24T04:52:02.455Z,1001.92
2022-12-24T04:53:02.860Z,1001.95
2022-12-24T04:54:02.262Z,1001.91
2022-12-24T04:55:02.535Z,1001.91
2022-12-24T04:56:02.127Z,1001.95
2022-12-24T04:57:02.706Z,1001.91
2022-12-24T04:58:02.503Z,1001.90
2022-12-24T04:59:02.309Z,1001.89
2022-12-24T05:00:02.728Z,1001.92
2022-12-24T05:01:02.471Z,1001.94
2022-12-24T05:02:02.420Z,1001.90
2022-12-24T05:03:01.759Z,1001.89
2022-12-24T05:04:02.338Z,1001.93
2022-12-24T05:05:01.718Z,1001.89
2022-12-24T05:06:01.813Z,1001.91
2022-12-24T05:07:02.341Z,1001.86
2022-12-24T05:08:02.994Z,1001.85
2022-12-24T05:09:02.559Z,1001.91
2022-12-24T05:10:02.463Z,1001.97
2022-12-24T05:11:02.944Z,1001.97
2022-12-24T05:12:02.424Z,1001.99
2022-12-24T05:13:01.998Z,1001.98
2022-12-24T05:14:02.508Z,1002.03
2022-12-24T05:15:01.992Z,1001.98
2022-12-24T05:16:02.212Z,1002.01
2022-12-24T05:17:02.817Z,1001.96
2022-12-24T05:18:02.630Z,1001.94
2022-12-24T05:19:02.637Z,1001.95
2022-12-24T05:20:02.519Z,1001.91
2022-12-24T05:21:02.645Z,1001.92
2022-12-24T05:22:01.672Z,1001.96
2022-12-24T05:23:01.967Z,1001.93
2022-12-24T05:24:01.744Z,1001.96
2022-12-24T05:25:01.642Z,1001.95
2022-12-24T05:26:01.851Z,1001.97
2022-12-24T05:27:02.108Z,1002.00
2022-12-24T05:28:02.064Z,1001.98
2022-12-24T05:29:01.951Z,1002.02
2022-12-24T05:30:02.029Z,1002.00
2022-12-24T05:31:02.081Z,1001.99
2022-12-24T05:32:02.999Z,1002.02
2022-12-24T05:33:02.884Z,1002.01
2022-12-24T05:34:02.712Z,1002.03
2022-12-24T05:35:02.699Z,1002.03
2022-12-24T05:36:02.590Z,1002.00
2022-12-24T05:37:02.105Z,1001.97
2022-12-24T05:38:02.324Z,1001.98
2022-12-24T05:39:02.169Z,1001.98
2022-12-24T05:40:02.658Z,1002.00
2022-12-24T05:41:02.514Z,1001.97
2022-12-24T05:42:02.113Z,1001.99
2022-12-24T05:43:01.966Z,1002.02
2022-12-24T05:44:01.785Z,1002.00
2022-12-24T05:45:01.939Z,1002.01
2022-12-24T05:46:01.906Z,1002.01
2022-12-24T05:47:02.281Z,1002.05
2022-12-24T05:48:02.192Z,1002.09
2022-12-24T05:49:02.054Z,1002.12
2022-12-24T05:50:01.776Z,1002.12
2022-12-24T05:51:01.897Z,1002.14
2022-12-24T05:52:02.225Z,1002.14
2022-12-24T05:53:01.728Z,1002.14
2022-12-24T05:54:02.312Z,1002.16
2022-12-24T05:55:02.000Z,1002.17
2022-12-24T05:56:01.845Z,1002.20
2022-12-24T05:57:02.534Z,1002.24
2022-12-24T05:58:02.274Z,1002.25
2022-12-24T05:59:02.535Z,1002.24
2022-12-24T06:00:02.366Z,1002.25
2022-12-24T06:01:02.305Z,1002.20
2022-12-24T06:02:01.924Z,1002.25
2022-12-24T06:03:01.836Z,1002.20
2022-12-24T06:04:02.498Z,1002.23
2022-12-24T06:05:02.113Z,1002.21
2022-12-24T06:06:01.936Z,1002.20
2022-12-24T06:07:02.541Z,1002.23
2022-12-24T06:08:02.312Z,1002.25
2022-12-24T06:09:02.763Z,1002.31
2022-12-24T06:10:02.528Z,1002.34
2022-12-24T06:11:02.475Z,1002.35
2022-12-24T06:12:02.627Z,1002.33
2022-12-24T06:13:02.806Z,1002.29
2022-12-24T06:14:02.443Z,1002.27
2022-12-24T06:15:03.018Z,1002.26
2022-12-24T06:16:02.897Z,1002.27
2022-12-24T06:17:02.618Z,1002.28
2022-12-24T06:18:02.570Z,1002.29
2022-12-24T06:19:02.793Z,1002.33
2022-12-24T06:20:02.868Z,1002.37
2022-12-24T06:21:02.609Z,1002.37
2022-12-24T06:22:02.574Z,1002.42
2022-12-24T06:23:02.431Z,1002.38
2022-12-24T06:24:02.701Z,1002.42
2022-12-24T06:25:02.568Z,1002.35
2022-12-24T06:26:02.265Z,1002.44
2022-12-24T06:27:02.237Z,1002.45
2022-12-24T06:28:02.470Z,1002.49
2022-12-24T06:29:02.533Z,1002.45
2022-12-24T06:30:02.354Z,1002.49
2022-12-24T06:31:03.691Z,1002.50
2022-12-24T06:32:02.731Z,1002.50
2022-12-24T06:33:03.019Z,1002.50
2022-12-24T06:34:02.929Z,1002.51
2022-12-24T06:35:02.953Z,1002.48
2022-12-24T06:36:02.857Z,1002.46
2022-12-24T06:37:02.655Z,1002.46
2022-12-24T06:38:03.392Z,1002.44
2022-12-24T06:39:02.611Z,1002.45
2022-12-24T06:40:02.893Z,1002.44
2022-12-24T06:41:02.804Z,1002.45
2022-12-24T06:42:02.592Z,1002.49
2022-12-24T06:43:02.599Z,1002.49
2022-12-24T06:44:02.628Z,1002.52
2022-12-24T06:45:08.196Z,1002.53
2022-12-24T06:46:02.941Z,1002.55
2022-12-24T06:47:01.900Z,1002.54
2022-12-24T06:48:02.250Z,1002.54
2022-12-24T06:49:02.091Z,1002.56
2022-12-24T06:50:01.946Z,1002.57
2022-12-24T06:51:02.113Z,1002.58
2022-12-24T06:52:02.377Z,1002.60
2022-12-24T06:53:02.330Z,1002.62
2022-12-24T06:54:02.259Z,1002.60
2022-12-24T06:55:02.506Z,1002.57
2022-12-24T06:56:02.588Z,1002.58
2022-12-24T06:57:02.787Z,1002.59
2022-12-24T06:58:02.589Z,1002.63
2022-12-24T06:59:05.560Z,1002.69
2022-12-24T07:00:02.715Z,1002.74
2022-12-24T07:01:02.747Z,1002.74
2022-12-24T07:02:02.090Z,1002.71
2022-12-24T07:03:01.976Z,1002.75
2022-12-24T07:04:02.166Z,1002.77
2022-12-24T07:05:02.035Z,1002.79
2022-12-24T07:06:02.358Z,1002.80
2022-12-24T07:07:02.361Z,1002.86
2022-12-24T07:08:02.264Z,1002.83
2022-12-24T07:09:01.813Z,1002.87
2022-12-24T07:10:01.727Z,1002.89
2022-12-24T07:11:02.682Z,1002.91
2022-12-24T07:12:02.229Z,1002.89
2022-12-24T07:13:02.065Z,1002.87
2022-12-24T07:14:01.897Z,1002.84
2022-12-24T07:15:02.466Z,1002.83
2022-12-24T07:16:02.581Z,1002.77
2022-12-24T07:17:02.433Z,1002.76
2022-12-24T07:18:02.350Z,1002.78
2022-12-24T07:19:02.217Z,1002.78
2022-12-24T07:20:02.071Z,1002.81
2022-12-24T07:21:02.568Z,1002.83
2022-12-24T07:22:01.900Z,1002.82
2022-12-24T07:23:01.604Z,1002.88
2022-12-24T07:24:01.594Z,1002.94
2022-12-24T07:25:01.469Z,1002.98
2022-12-24T07:26:01.951Z,1003.00
2022-12-24T07:27:02.009Z,1003.07
2022-12-24T07:28:01.808Z,1003.00
2022-12-24T07:29:02.249Z,1003.05
2022-12-24T07:30:01.815Z,1003.08
2022-12-24T07:31:01.908Z,1003.07
2022-12-24T07:32:02.459Z,1003.07
2022-12-24T07:33:02.301Z,1003.15
2022-12-24T07:34:02.474Z,1003.17
2022-12-24T07:35:02.238Z,1003.15
2022-12-24T07:36:02.253Z,1003.21
2022-12-24T07:37:02.761Z,1003.24
2022-12-24T07:38:02.585Z,1003.28
2022-12-24T07:39:02.866Z,1003.26
2022-12-24T07:40:02.915Z,1003.25
2022-12-24T07:41:03.013Z,1003.29
2022-12-24T07:42:02.030Z,1003.27
2022-12-24T07:43:02.283Z,1003.26
2022-12-24T07:44:02.151Z,1003.28
2022-12-24T07:45:02.114Z,1003.29
2022-12-24T07:46:02.638Z,1003.29
2022-12-24T07:47:02.456Z,1003.30
2022-12-24T07:48:02.018Z,1003.31
2022-12-24T07:49:01.893Z,1003.32
2022-12-24T07:50:02.668Z,1003.34
2022-12-24T07:51:02.537Z,1003.37
2022-12-24T07:52:01.921Z,1003.41
2022-12-24T07:53:01.856Z,1003.41
2022-12-24T07:54:01.771Z,1003.45
2022-12-24T07:55:01.838Z,1003.40
2022-12-24T07:56:04.330Z,1003.44
2022-12-24T07:57:02.608Z,1003.39
2022-12-24T07:58:02.599Z,1003.35
2022-12-24T07:59:02.729Z,1003.37
2022-12-24T08:00:02.274Z,1003.35
2022-12-24T08:01:02.440Z,1003.39
2022-12-24T08:02:03.661Z,1003.35
2022-12-24T08:03:03.401Z,1003.34
2022-12-24T08:04:03.126Z,1003.32
2022-12-24T08:05:02.970Z,1003.41
2022-12-24T08:06:02.974Z,1003.36
2022-12-24T08:07:03.346Z,1003.35
2022-12-24T08:08:03.452Z,1003.40
2022-12-24T08:09:03.432Z,1003.49
2022-12-24T08:10:03.017Z,1003.52
2022-12-24T08:11:02.984Z,1003.51
2022-12-24T08:12:03.079Z,1003.49
2022-12-24T08:13:02.579Z,1003.49
2022-12-24T08:14:02.830Z,1003.55
2022-12-24T08:15:02.892Z,1003.55
2022-12-24T08:16:02.567Z,1003.56
2022-12-24T08:17:02.613Z,1003.57
2022-12-24T08:18:02.563Z,1003.55
2022-12-24T08:19:02.476Z,1003.51
2022-12-24T08:20:02.317Z,1003.54
2022-12-24T08:21:02.290Z,1003.59
2022-12-24T08:22:03.061Z,1003.59
2022-12-24T08:23:02.653Z,1003.61
2022-12-24T08:24:03.174Z,1003.62
2022-12-24T08:25:02.684Z,1003.68
2022-12-24T08:26:02.743Z,1003.61
2022-12-24T08:27:02.753Z,1003.64
2022-12-24T08:28:02.210Z,1003.60
2022-12-24T08:29:02.236Z,1003.61
2022-12-24T08:30:02.354Z,1003.59
2022-12-24T08:31:02.352Z,1003.60
2022-12-24T08:32:03.453Z,1003.66
2022-12-24T08:33:03.086Z,1003.67
2022-12-24T08:34:03.073Z,1003.68
2022-12-24T08:35:02.931Z,1003.71
2022-12-24T08:36:03.052Z,1003.74
2022-12-24T08:37:02.509Z,1003.75
2022-12-24T08:38:02.128Z,1003.72
2022-12-24T08:39:02.375Z,1003.72
2022-12-24T08:40:02.267Z,1003.72
2022-12-24T08:41:02.307Z,1003.70
2022-12-24T08:42:02.936Z,1003.67
2022-12-24T08:43:02.423Z,1003.67
2022-12-24T08:44:02.692Z,1003.67
2022-12-24T08:45:02.319Z,1003.74
2022-12-24T08:46:02.437Z,1003.75
2022-12-24T08:47:02.989Z,1003.77
2022-12-24T08:48:03.566Z,1003.83
2022-12-24T08:49:03.516Z,1003.86
2022-12-24T08:50:03.506Z,1003.87
2022-12-24T08:51:03.952Z,1003.92
2022-12-24T08:52:02.438Z,1003.91
2022-12-24T08:53:02.586Z,1003.93
2022-12-24T08:54:02.124Z,1003.91
2022-12-24T08:55:02.350Z,1003.95
2022-12-24T08:56:02.102Z,1003.93
2022-12-24T08:57:02.600Z,1003.96
2022-12-24T08:58:02.933Z,1003.99
2022-12-24T08:59:02.717Z,1004.02
2022-12-24T09:00:02.886Z,1004.03
2022-12-24T09:01:02.890Z,1004.02
2022-12-24T09:02:02.886Z,1003.97
2022-12-24T09:03:03.032Z,1003.98
2022-12-24T09:04:03.072Z,1003.98
2022-12-24T09:05:03.125Z,1004.02
2022-12-24T09:06:03.217Z,1004.02
2022-12-24T09:07:02.600Z,1004.08
2022-12-24T09:08:02.472Z,1004.08
2022-12-24T09:09:02.266Z,1004.07
2022-12-24T09:10:02.170Z,1004.08
2022-12-24T09:11:02.304Z,1004.08
2022-12-24T09:12:02.239Z,1004.11
2022-12-24T09:13:02.323Z,1004.09
2022-12-24T09:14:02.512Z,1004.08
2022-12-24T09:15:04.165Z,1004.09
2022-12-24T09:16:02.156Z,1004.09
2022-12-24T09:17:02.298Z,1004.13
2022-12-24T09:18:02.315Z,1004.16
2022-12-24T09:19:02.373Z,1004.19
2022-12-24T09:20:02.296Z,1004.21
2022-12-24T09:21:02.050Z,1004.21
2022-12-24T09:22:02.538Z,1004.19
2022-12-24T09:23:02.618Z,1004.24
2022-12-24T09:24:02.945Z,1004.29
2022-12-24T09:25:03.006Z,1004.32
2022-12-24T09:26:02.904Z,1004.40
2022-12-24T09:27:02.462Z,1004.40
2022-12-24T09:28:02.113Z,1004.37
2022-12-24T09:29:01.881Z,1004.39
2022-12-24T09:30:02.067Z,1004.43
2022-12-24T09:31:02.252Z,1004.42
2022-12-24T09:32:02.694Z,1004.43
2022-12-24T09:33:02.480Z,1004.48
2022-12-24T09:34:02.983Z,1004.53
2022-12-24T09:35:02.997Z,1004.53
2022-12-24T09:36:02.421Z,1004.53
2022-12-24T09:37:02.855Z,1004.54
2022-12-24T09:38:03.071Z,1004.59
2022-12-24T09:39:03.003Z,1004.60
2022-12-24T09:40:02.631Z,1004.59
2022-12-24T09:41:08.748Z,1004.62
2022-12-24T09:42:02.183Z,1004.62
2022-12-24T09:43:01.848Z,1004.60
2022-12-24T09:44:01.827Z,1004.68
2022-12-24T09:45:02.083Z,1004.66
2022-12-24T09:46:02.325Z,1004.68
2022-12-24T09:47:08.172Z,1004.70
2022-12-24T09:48:02.594Z,1004.68
2022-12-24T09:49:02.456Z,1004.74
2022-12-24T09:50:02.782Z,1004.78
2022-12-24T09:51:02.366Z,1004.80
2022-12-24T09:52:02.106Z,1004.80
2022-12-24T09:53:02.223Z,1004.73
2022-12-24T09:54:01.855Z,1004.73
2022-12-24T09:55:02.225Z,1004.76
2022-12-24T09:56:01.889Z,1004.72
2022-12-24T09:57:02.306Z,1004.73
2022-12-24T09:58:02.221Z,1004.70
2022-12-24T09:59:02.538Z,1004.66
2022-12-24T10:00:02.259Z,1004.57
2022-12-24T10:01:01.893Z,1004.57
2022-12-24T10:02:02.562Z,1004.63
2022-12-24T10:03:02.747Z,1004.63
2022-12-24T10:04:02.677Z,1004.71
2022-12-24T10:05:02.413Z,1004.72
2022-12-24T10:06:02.507Z,1004.74
2022-12-24T10:07:02.550Z,1004.76
2022-12-24T10:08:02.735Z,1004.77
2022-12-24T10:09:02.718Z,1004.78
2022-12-24T10:10:03.008Z,1004.79
2022-12-24T10:11:03.032Z,1004.85
2022-12-24T10:12:02.548Z,1004.84
2022-12-24T10:13:02.117Z,1004.87
2022-12-24T10:14:02.355Z,1004.89
2022-12-24T10:15:02.015Z,1004.93
2022-12-24T10:16:01.867Z,1004.92
2022-12-24T10:17:02.774Z,1004.90
2022-12-24T10:18:02.561Z,1004.91
2022-12-24T10:19:02.492Z,1004.87
2022-12-24T10:20:02.591Z,1004.89
2022-12-24T10:21:02.632Z,1004.87
2022-12-24T10:22:03.119Z,1004.91
2022-12-24T10:23:03.178Z,1004.91
2022-12-24T10:24:02.822Z,1004.88
2022-12-24T10:25:03.053Z,1004.91
2022-12-24T10:26:02.762Z,1004.90
2022-12-24T10:27:02.872Z,1004.86
2022-12-24T10:28:02.425Z,1004.86
2022-12-24T10:29:02.903Z,1004.84
2022-12-24T10:30:02.780Z,1004.84
2022-12-24T10:31:02.896Z,1004.81
2022-12-24T10:32:02.694Z,1004.77
2022-12-24T10:33:02.977Z,1004.78
2022-12-24T10:34:02.391Z,1004.78
2022-12-24T10:35:02.381Z,1004.84
2022-12-24T10:36:08.144Z,1004.81
2022-12-24T10:37:02.995Z,1004.81
2022-12-24T10:38:02.657Z,1004.85
2022-12-24T10:39:03.166Z,1004.85
2022-12-24T10:40:03.059Z,1004.87
2022-12-24T10:41:02.812Z,1004.88
2022-12-24T10:42:02.399Z,1004.83
2022-12-24T10:43:01.956Z,1004.88
2022-12-24T10:44:02.115Z,1004.84
2022-12-24T10:45:02.386Z,1004.89
2022-12-24T10:46:02.483Z,1004.85
2022-12-24T10:47:02.633Z,1004.83
2022-12-24T10:48:02.552Z,1004.88
2022-12-24T10:49:02.237Z,1004.92
2022-12-24T10:50:02.520Z,1004.93
2022-12-24T10:51:02.239Z,1004.95
2022-12-24T10:52:02.774Z,1004.95
2022-12-24T10:53:02.684Z,1004.91
2022-12-24T10:54:02.779Z,1004.98
2022-12-24T10:55:02.559Z,1004.95
2022-12-24T10:56:02.590Z,1004.93
2022-12-24T10:57:02.637Z,1004.95
2022-12-24T10:58:02.424Z,1004.93
2022-12-24T10:59:02.255Z,1004.96
2022-12-24T11:00:02.295Z,1004.91
2022-12-24T11:01:02.623Z,1004.92
2022-12-24T11:02:03.247Z,1004.89
2022-12-24T11:03:03.103Z,1004.87
2022-12-24T11:04:02.630Z,1004.90
2022-12-24T11:05:02.978Z,1004.85
2022-12-24T11:06:02.763Z,1004.85
2022-12-24T11:07:03.545Z,1004.87
2022-12-24T11:08:03.674Z,1004.85
2022-12-24T11:09:03.585Z,1004.87
2022-12-24T11:10:03.681Z,1004.82
2022-12-24T11:11:03.348Z,1004.78
2022-12-24T11:12:08.709Z,1004.77
2022-12-24T11:13:35.680Z,1004.80
2022-12-24T11:14:02.459Z,1004.79
2022-12-24T11:15:02.350Z,1004.79
2022-12-24T11:16:02.483Z,1004.85
2022-12-24T11:17:03.325Z,1004.86
2022-12-24T11:18:03.153Z,1004.85
2022-12-24T11:19:03.309Z,1004.85
2022-12-24T11:20:03.168Z,1004.86
2022-12-24T11:21:03.290Z,1004.82
2022-12-24T11:22:03.366Z,1004.82
2022-12-24T11:23:03.063Z,1004.84
2022-12-24T11:24:03.287Z,1004.87
2022-12-24T11:25:03.489Z,1004.85
2022-12-24T11:26:02.895Z,1004.86
2022-12-24T11:27:02.989Z,1004.80
2022-12-24T11:28:02.637Z,1004.81
2022-12-24T11:29:02.433Z,1004.84
2022-12-24T11:30:05.195Z,1004.85
2022-12-24T11:31:02.772Z,1004.82
2022-12-24T11:32:02.902Z,1004.80
2022-12-24T11:33:03.001Z,1004.78
2022-12-24T11:34:02.923Z,1004.74
2022-12-24T11:35:02.398Z,1004.71
2022-12-24T11:36:02.607Z,1004.78
2022-12-24T11:37:03.345Z,1004.78
2022-12-24T11:38:03.085Z,1004.80
2022-12-24T11:39:02.883Z,1004.79
2022-12-24T11:40:03.004Z,1004.81
2022-12-24T11:41:02.863Z,1004.82
2022-12-24T11:42:02.385Z,1004.83
2022-12-24T11:43:02.926Z,1004.85
2022-12-24T11:44:02.840Z,1004.86
2022-12-24T11:45:02.415Z,1004.81
2022-12-24T11:46:02.551Z,1004.85
2022-12-24T11:47:02.977Z,1004.86
2022-12-24T11:48:02.979Z,1004.82
2022-12-24T11:49:07.797Z,1004.86
2022-12-24T11:50:18.246Z,1004.85
2022-12-24T11:51:03.239Z,1004.84
2022-12-24T11:52:03.392Z,1004.84
2022-12-24T11:53:02.569Z,1004.83
2022-12-24T11:54:02.614Z,1004.86
2022-12-24T11:55:02.680Z,1004.87
2022-12-24T11:56:02.710Z,1004.88
2022-12-24T11:57:02.696Z,1004.87
2022-12-24T11:58:02.883Z,1004.85
2022-12-24T11:59:03.425Z,1004.84
2022-12-24T12:00:03.081Z,1004.87
2022-12-24T12:01:02.967Z,1004.88
2022-12-24T12:02:03.355Z,1004.87
2022-12-24T12:03:02.905Z,1004.87
2022-12-24T12:04:03.153Z,1004.85
2022-12-24T12:05:03.238Z,1004.86
2022-12-24T12:06:03.161Z,1004.83
2022-12-24T12:07:02.938Z,1004.87
2022-12-24T12:08:02.897Z,1004.87